Time;durP1;ratioP1;P1;durP2;ratioP2;P2;SDS_P1;SDS_P2;PMS_P1;PMS_P2;Temp;Humidity;BMP_temperature;BMP_pressure;BME280_temperature;BME280_humidity;BME280_pressure;Samples;Min_cycle;Max_cycle;Signal;HPM_P1;HPM_P2
2022/08/21 00:08:05;;;;;;;3.30;2.50;;;;;;;;;;21005605;28;20484;-56
2022/08/21 00:18:07;;;;;;;3.60;2.17;;;;;;;;;;21005109;28;20048;-56
2022/08/21 00:28:10;;;;;;;5.28;2.70;;;;;;;;;;21004040;28;20136;-56
2022/08/21 00:38:12;;;;;;;5.35;1.90;;;;;;;;;;21003408;28;20053;-56
2022/08/21 00:48:14;;;;;;;3.33;2.15;;;;;;;;;;21002544;28;20139;-56
2022/08/21 00:58:16;;;;;;;3.28;1.73;;;;;;;;;;21001106;28;20136;-57
2022/08/21 01:08:20;;;;;;;3.90;1.83;;;;;;;;;;21001024;28;20409;-57
2022/08/21 01:18:23;;;;;;;3.70;1.60;;;;;;;;;;21000275;28;20055;-56
2022/08/21 01:28:33;;;;;;;2.95;1.50;;;;;;;;;;20999884;28;20139;-58
2022/08/21 01:38:38;;;;;;;2.78;1.60;;;;;;;;;;20998111;28;20057;-57
2022/08/21 01:48:44;;;;;;;5.00;1.98;;;;;;;;;;20997392;28;20059;-56
2022/08/21 01:58:51;;;;;;;3.90;2.03;;;;;;;;;;20998176;28;20131;-55
2022/08/21 02:09:04;;;;;;;6.43;2.50;;;;;;;;;;20996460;28;20052;-57
2022/08/21 02:19:16;;;;;;;4.22;1.98;;;;;;;;;;20994934;28;20045;-57
2022/08/21 02:29:21;;;;;;;8.40;2.10;;;;;;;;;;20995304;28;20076;-58
2022/08/21 02:39:36;;;;;;;4.05;1.55;;;;;;;;;;20995833;28;20052;-57
2022/08/21 02:49:49;;;;;;;3.33;1.80;;;;;;;;;;20994392;28;20057;-57
2022/08/21 02:59:59;;;;;;;3.92;1.80;;;;;;;;;;20994048;28;20044;-56
2022/08/21 03:10:08;;;;;;;3.80;1.50;;;;;;;;;;20993779;28;20049;-57
2022/08/21 03:20:10;;;;;;;3.30;2.43;;;;;;;;;;21000779;28;20048;-55
2022/08/21 03:30:14;;;;;;;3.08;2.03;;;;;;;;;;21009142;28;20492;-54
2022/08/21 03:40:20;;;;;;;3.90;1.85;;;;;;;;;;21007655;28;20049;-55
2022/08/21 03:50:25;;;;;;;6.15;2.10;;;;;;;;;;21007162;28;20048;-56
2022/08/21 04:00:28;;;;;;;3.03;1.73;;;;;;;;;;21007053;28;20492;-56
2022/08/21 04:10:32;;;;;;;3.35;1.88;;;;;;;;;;21006105;28;20099;-56
2022/08/21 04:20:34;;;;;;;5.95;1.98;;;;;;;;;;21005169;28;20114;-56
2022/08/21 04:30:39;;;;;;;2.92;1.60;;;;;;;;;;21003884;28;20464;-56
2022/08/21 04:40:42;;;;;;;3.45;2.75;;;;;;;;;;21003269;28;20077;-55
2022/08/21 04:50:53;;;;;;;3.55;1.70;;;;;;;;;;21002739;28;20090;-56
2022/08/21 05:00:57;;;;;;;2.33;1.80;;;;;;;;;;21002264;28;20455;-57
2022/08/21 05:11:00;;;;;;;4.05;2.20;;;;;;;;;;21001618;28;20135;-56
2022/08/21 05:21:03;;;;;;;4.55;1.90;;;;;;;;;;20999686;28;20566;-56
2022/08/21 05:31:05;;;;;;;5.55;1.95;;;;;;;;;;20999138;28;20056;-56
2022/08/21 05:41:08;;;;;;;3.50;1.50;;;;;;;;;;20998827;28;20439;-57
2022/08/21 05:51:13;;;;;;;4.55;1.30;;;;;;;;;;20998250;28;20056;-57
2022/08/21 06:01:15;;;;;;;3.30;1.88;;;;;;;;;;20998468;28;20049;-56
2022/08/21 06:11:18;;;;;;;2.92;1.95;;;;;;;;;;20997338;28;20060;-57
2022/08/21 06:21:20;;;;;;;7.70;2.43;;;;;;;;;;20995681;28;20448;-58
2022/08/21 06:31:23;;;;;;;3.10;1.60;;;;;;;;;;20995713;28;20048;-59
2022/08/21 06:41:25;;;;;;;5.88;1.85;;;;;;;;;;20995740;28;20053;-57
2022/08/21 06:51:28;;;;;;;2.90;1.83;;;;;;;;;;20996291;28;20052;-59
2022/08/21 07:01:30;;;;;;;5.90;2.60;;;;;;;;;;21012850;28;20051;-55
2022/08/21 07:11:32;;;;;;;5.17;2.13;;;;;;;;;;21010789;28;20110;-56
2022/08/21 07:21:34;;;;;;;4.20;1.67;;;;;;;;;;21009229;28;20047;-57
2022/08/21 07:31:36;;;;;;;5.40;2.30;;;;;;;;;;21008912;28;20408;-56
2022/08/21 07:41:39;;;;;;;;;;;;;;;;;;21009405;28;20044;-61
2022/08/21 07:51:41;;;;;;;7.05;3.53;;;;;;;;;;21007027;28;19924;-56
2022/08/21 08:01:44;;;;;;;4.60;2.47;;;;;;;;;;21006990;28;20400;-57
2022/08/21 08:11:46;;;;;;;6.97;2.80;;;;;;;;;;21006041;28;20052;-55
2022/08/21 08:21:48;;;;;;;8.73;2.30;;;;;;;;;;21005701;28;20045;-56
2022/08/21 08:31:50;;;;;;;12.73;7.88;;;;;;;;;;21004266;28;20060;-57
2022/08/21 08:41:57;;;;;;;3.47;2.03;;;;;;;;;;21003887;28;20080;-55
2022/08/21 08:52:21;;;;;;;4.07;2.10;;;;;;;;;;21002298;28;20049;-56
2022/08/21 09:02:23;;;;;;;6.65;2.60;;;;;;;;;;21001084;28;20048;-56
2022/08/21 09:12:31;;;;;;;5.65;2.70;;;;;;;;;;21001855;28;20101;-56
2022/08/21 09:22:41;;;;;;;24.27;3.67;;;;;;;;;;20999087;28;20132;-58
2022/08/21 09:32:44;;;;;;;4.93;2.58;;;;;;;;;;20999219;28;20440;-57
2022/08/21 09:42:54;;;;;;;5.47;2.28;;;;;;;;;;20998714;28;20436;-56
2022/08/21 09:52:58;;;;;;;3.13;1.83;;;;;;;;;;20999287;28;20109;-58
2022/08/21 10:03:13;;;;;;;3.35;2.00;;;;;;;;;;20997195;28;20393;-56
2022/08/21 10:13:18;;;;;;;5.03;2.60;;;;;;;;;;20996420;28;20510;-58
2022/08/21 10:23:35;;;;;;;4.53;1.80;;;;;;;;;;20998162;28;20045;-56
2022/08/21 10:34:04;;;;;;;2.78;1.95;;;;;;;;;;20994935;28;20135;-56
2022/08/21 10:44:24;;;;;;;3.33;1.85;;;;;;;;;;20987020;28;20059;-57
2022/08/21 10:54:43;;;;;;;6.68;2.60;;;;;;;;;;20994672;28;20045;-56
2022/08/21 11:04:55;;;;;;;3.42;2.35;;;;;;;;;;20993040;28;20060;-56
2022/08/21 11:15:00;;;;;;;4.20;2.38;;;;;;;;;;20993297;28;20131;-58
2022/08/21 11:25:08;;;;;;;4.13;2.50;;;;;;;;;;20993346;28;20076;-57
2022/08/21 11:35:29;;;;;;;4.65;3.20;;;;;;;;;;20992500;28;20052;-56
2022/08/21 11:45:30;;;;;;;;;;;;;;;;;;21006146;28;20079;-57
2022/08/21 11:55:37;;;;;;;8.02;4.85;;;;;;;;;;21007387;28;20372;-57
2022/08/21 12:05:41;;;;;;;5.68;2.92;;;;;;;;;;21005829;28;20083;-57
2022/08/21 12:15:43;;;;;;;6.75;3.30;;;;;;;;;;21005349;28;20481;-58
2022/08/21 12:26:00;;;;;;;5.57;3.60;;;;;;;;;;21004752;28;20049;-62
2022/08/21 12:36:12;;;;;;;3.80;2.95;;;;;;;;;;21003780;28;20048;-62
2022/08/21 12:46:22;;;;;;;5.85;3.50;;;;;;;;;;21002840;28;20069;-57
2022/08/21 12:56:27;;;;;;;6.10;2.58;;;;;;;;;;21002658;28;20055;-57
2022/08/21 13:06:32;;;;;;;4.03;2.90;;;;;;;;;;21002754;28;20044;-57
2022/08/21 13:16:34;;;;;;;5.95;2.53;;;;;;;;;;21002371;28;20056;-57
2022/08/21 13:26:37;;;;;;;12.80;11.20;;;;;;;;;;21000399;28;20049;-57
2022/08/21 13:36:42;;;;;;;4.60;2.72;;;;;;;;;;21000142;28;20484;-57
2022/08/21 13:46:46;;;;;;;6.68;2.78;;;;;;;;;;20998277;28;20068;-57
2022/08/21 13:56:50;;;;;;;4.30;2.80;;;;;;;;;;20997921;28;20040;-58
2022/08/21 14:06:52;;;;;;;5.32;3.10;;;;;;;;;;20996488;28;20139;-57
2022/08/21 14:17:04;;;;;;;4.07;2.90;;;;;;;;;;20996963;28;20118;-56
2022/08/21 14:27:07;;;;;;;5.72;3.67;;;;;;;;;;20995749;28;20044;-56
2022/08/21 14:37:09;;;;;;;6.85;3.55;;;;;;;;;;20995462;28;20048;-55
2022/08/21 14:47:11;;;;;;;4.45;2.90;;;;;;;;;;20994963;28;20523;-58
2022/08/21 14:57:13;;;;;;;5.55;3.50;;;;;;;;;;20995691;28;20053;-57
2022/08/21 15:07:15;;;;;;;5.65;3.50;;;;;;;;;;20995760;28;20135;-57
2022/08/21 15:17:16;;;;;;;4.13;3.30;;;;;;;;;;21004041;28;20040;-57
2022/08/21 15:27:20;;;;;;;3.85;3.13;;;;;;;;;;21009508;28;20052;-58
2022/08/21 15:37:22;;;;;;;3.85;3.47;;;;;;;;;;21008490;28;20052;-57
2022/08/21 15:47:35;;;;;;;4.60;3.75;;;;;;;;;;21007882;28;20080;-57
2022/08/21 15:57:38;;;;;;;4.05;2.53;;;;;;;;;;21007586;28;20536;-56
2022/08/21 16:07:40;;;;;;;2.50;2.10;;;;;;;;;;21006508;28;20056;-57
2022/08/21 16:17:47;;;;;;;2.45;1.73;;;;;;;;;;21005270;28;20048;-57
2022/08/21 16:27:51;;;;;;;2.45;1.70;;;;;;;;;;21004282;28;20404;-58
2022/08/21 16:37:53;;;;;;;4.93;2.03;;;;;;;;;;21005136;28;20121;-59
2022/08/21 16:47:55;;;;;;;1.70;1.50;;;;;;;;;;21003445;28;20044;-59
2022/08/21 16:57:58;;;;;;;3.60;1.50;;;;;;;;;;21002592;28;20049;-58
2022/08/21 17:08:00;;;;;;;3.35;1.30;;;;;;;;;;21001516;28;20476;-56
2022/08/21 17:18:03;;;;;;;1.88;1.30;;;;;;;;;;21002053;28;20386;-58
2022/08/21 17:28:05;;;;;;;2.33;1.83;;;;;;;;;;20999404;28;20048;-58
2022/08/21 17:38:08;;;;;;;1.60;1.10;;;;;;;;;;20998875;28;20400;-57
2022/08/21 17:48:10;;;;;;;1.85;0.93;;;;;;;;;;20999042;28;20048;-58
2022/08/21 17:58:14;;;;;;;3.03;0.90;;;;;;;;;;20997616;28;20063;-58
2022/08/21 18:08:17;;;;;;;3.85;1.48;;;;;;;;;;20997466;28;20499;-57
2022/08/21 18:18:20;;;;;;;1.40;0.90;;;;;;;;;;20997405;28;20040;-58
2022/08/21 18:28:22;;;;;;;2.65;1.10;;;;;;;;;;20994776;28;20052;-56
2022/08/21 18:38:24;;;;;;;1.45;1.05;;;;;;;;;;20996611;28;20052;-56
2022/08/21 18:48:26;;;;;;;2.00;1.30;;;;;;;;;;21003952;28;20385;-57
2022/08/21 18:58:28;;;;;;;5.88;3.55;;;;;;;;;;21020994;28;20048;-56
2022/08/21 19:08:30;;;;;;;3.60;2.63;;;;;;;;;;21022037;28;20048;-57
2022/08/21 19:18:34;;;;;;;4.57;2.78;;;;;;;;;;21021917;28;20436;-57
2022/08/21 19:28:39;;;;;;;5.15;2.42;;;;;;;;;;21021858;28;20102;-57
2022/08/21 19:38:42;;;;;;;4.13;2.90;;;;;;;;;;21021051;28;20484;-57
2022/08/21 19:48:45;;;;;;;3.38;2.20;;;;;;;;;;21020836;28;20053;-57
2022/08/21 19:58:49;;;;;;;5.38;2.10;;;;;;;;;;21017087;28;20044;-60
2022/08/21 20:08:51;;;;;;;7.15;4.45;;;;;;;;;;21006216;28;20048;-58
2022/08/21 20:18:53;;;;;;;4.15;1.95;;;;;;;;;;21005773;28;20127;-58
2022/08/21 20:28:55;;;;;;;3.00;2.20;;;;;;;;;;21005100;28;20087;-58
2022/08/21 20:38:57;;;;;;;2.97;2.00;;;;;;;;;;21003829;28;20092;-57
2022/08/21 20:49:00;;;;;;;4.35;2.03;;;;;;;;;;21003521;28;20059;-57
2022/08/21 20:59:21;;;;;;;3.70;1.92;;;;;;;;;;21002335;28;20408;-57
2022/08/21 21:09:32;;;;;;;3.05;2.10;;;;;;;;;;21000536;28;20053;-57
2022/08/21 21:19:38;;;;;;;3.47;2.47;;;;;;;;;;21002639;28;20452;-55
2022/08/21 21:29:43;;;;;;;8.90;5.65;;;;;;;;;;20999909;28;20074;-57
2022/08/21 21:39:50;;;;;;;4.07;3.45;;;;;;;;;;21000194;28;20059;-57
2022/08/21 21:50:24;;;;;;;2.65;2.25;;;;;;;;;;20998896;28;20052;-53
2022/08/21 22:00:28;;;;;;;9.48;4.55;;;;;;;;;;20906757;28;20080;-58
2022/08/21 22:10:33;;;;;;;10.85;8.63;;;;;;;;;;20906139;28;20049;-57
2022/08/21 22:20:48;;;;;;;6.88;4.47;;;;;;;;;;20904875;28;20055;-55
2022/08/21 22:30:54;;;;;;;5.72;4.20;;;;;;;;;;20937926;28;20083;-57
2022/08/21 22:41:16;;;;;;;11.57;6.63;;;;;;;;;;20995806;28;20052;-58
2022/08/21 22:51:48;;;;;;;9.88;6.35;;;;;;;;;;20995146;28;20052;-56
2022/08/21 23:01:49;;;;;;;;;;;;;;;;;;20903915;28;20052;-57
2022/08/21 23:11:51;;;;;;;2.97;1.48;;;;;;;;;;20902361;28;19921;-57
2022/08/21 23:21:58;;;;;;;3.80;1.85;;;;;;;;;;20902290;28;20048;-57
2022/08/21 23:32:19;;;;;;;3.35;2.00;;;;;;;;;;20926238;28;20535;-57
2022/08/21 23:42:24;;;;;;;3.50;2.43;;;;;;;;;;21008896;28;20067;-57
2022/08/21 23:52:34;;;;;;;5.32;2.70;;;;;;;;;;21007779;28;20131;-57
